Time;durP1;ratioP1;P1;durP2;ratioP2;P2;SDS_P1;SDS_P2;PMS_P1;PMS_P2;Temp;Humidity;BMP_temperature;BMP_pressure;BME280_temperature;BME280_humidity;BME280_pressure;Samples;Min_cycle;Max_cycle;Signal;HPM_P1;HPM_P2
2022/11/23 00:00:22;;;;;;;29.20;14.90;;;;;;;1.94;92.63;97545.92;214073;1309;24285;-71
2022/11/23 00:05:26;;;;;;;36.40;18.50;;;;;;;1.91;92.73;97543.59;214289;1310;24256;-71
2022/11/23 00:10:28;;;;;;;34.70;17.90;;;;;;;1.89;92.96;97545.01;214144;1310;24220;-71
2022/11/23 00:15:31;;;;;;;38.50;16.20;;;;;;;1.86;92.97;97544.79;214025;1310;25432;-71
2022/11/23 00:20:33;;;;;;;31.50;15.20;;;;;;;1.83;92.96;97548.10;214220;1310;24324;-71
2022/11/23 00:25:35;;;;;;;32.50;16.50;;;;;;;1.80;93.10;97548.89;214198;1310;24256;-71
2022/11/23 00:30:37;;;;;;;33.90;15.60;;;;;;;1.77;93.00;97544.66;214221;1309;22667;-71
2022/11/23 00:35:39;;;;;;;33.30;15.30;;;;;;;1.72;93.11;97543.75;214060;1310;22729;-71
2022/11/23 00:40:40;;;;;;;37.70;17.60;;;;;;;1.67;93.12;97544.55;214064;1310;23780;-70
2022/11/23 00:45:43;;;;;;;37.60;17.60;;;;;;;1.64;93.27;97534.65;214023;1309;25007;-72
2022/11/23 00:50:44;;;;;;;29.20;14.00;;;;;;;1.60;93.26;97535.70;214131;1310;23022;-71
2022/11/23 00:55:54;;;;;;;37.70;19.40;;;;;;;1.56;93.28;97528.45;214110;1310;22469;-72
2022/11/23 01:01:11;;;;;;;37.40;17.50;;;;;;;1.48;93.20;97527.38;214252;1310;22628;-70
2022/11/23 01:06:16;;;;;;;34.50;16.90;;;;;;;1.39;93.24;97523.02;214209;1310;24316;-69
2022/11/23 01:11:20;;;;;;;40.90;19.70;;;;;;;1.33;93.26;97518.20;213964;1310;22484;-70
2022/11/23 01:16:28;;;;;;;40.90;18.70;;;;;;;1.28;93.44;97521.72;214147;1310;25351;-70
2022/11/23 01:21:32;;;;;;;48.50;22.50;;;;;;;1.24;93.51;97525.02;214159;1309;25225;-71
2022/11/23 01:26:34;;;;;;;45.40;21.30;;;;;;;1.26;93.93;97525.09;214032;1310;22711;-71
2022/11/23 01:31:36;;;;;;;49.10;22.40;;;;;;;1.20;93.77;97520.52;214278;1295;22465;-70
2022/11/23 01:36:47;;;;;;;44.20;20.70;;;;;;;1.15;93.65;97526.00;213948;1310;22560;-71
2022/11/23 01:41:49;;;;;;;40.40;18.30;;;;;;;1.09;93.62;97525.34;214168;1310;25543;-70
2022/11/23 01:46:51;;;;;;;35.90;17.70;;;;;;;1.06;93.64;97518.98;214119;1310;24232;-69
2022/11/23 01:51:58;;;;;;;43.40;21.00;;;;;;;1.00;93.75;97520.80;214028;1310;22466;-70
2022/11/23 01:57:05;;;;;;;43.30;19.30;;;;;;;1.00;93.81;97522.97;214307;1309;24395;-71
2022/11/23 02:02:07;;;;;;;36.90;17.50;;;;;;;0.96;93.79;97525.00;214049;1310;22577;-71
2022/11/23 02:07:10;;;;;;;51.40;22.70;;;;;;;0.93;93.85;97526.36;214185;1298;24109;-70
2022/11/23 02:12:13;;;;;;;50.10;21.30;;;;;;;0.89;94.01;97531.14;214138;1310;22483;-71
2022/11/23 02:17:17;;;;;;;42.70;21.50;;;;;;;0.85;94.13;97535.40;214125;1310;24311;-72
2022/11/23 02:22:36;;;;;;;44.30;20.20;;;;;;;0.84;94.39;97540.45;214094;1310;22460;-72
2022/11/23 02:27:40;;;;;;;45.10;22.40;;;;;;;0.80;94.32;97543.80;214065;1310;27256;-71
2022/11/23 02:32:47;;;;;;;42.20;21.20;;;;;;;0.81;94.29;97540.42;214428;1310;23235;-70
2022/11/23 02:37:52;;;;;;;49.40;23.30;;;;;;;0.79;94.44;97540.73;214118;1310;22480;-71
2022/11/23 02:42:54;;;;;;;37.40;18.60;;;;;;;0.80;94.53;97542.44;214139;1310;23844;-70
2022/11/23 02:47:56;;;;;;;54.40;26.00;;;;;;;0.81;94.63;97539.22;214080;1306;22541;-70
2022/11/23 02:52:58;;;;;;;40.50;18.00;;;;;;;0.83;94.65;97541.60;214197;1308;22484;-70
2022/11/23 02:58:00;;;;;;;46.00;22.40;;;;;;;0.85;94.84;97543.36;214065;1309;22492;-72
2022/11/23 03:03:03;;;;;;;53.50;23.60;;;;;;;0.88;94.88;97537.88;213989;1310;23773;-70
2022/11/23 03:08:06;;;;;;;37.20;17.60;;;;;;;0.89;94.77;97534.94;214086;1310;22480;-71
2022/11/23 03:13:08;;;;;;;49.90;23.90;;;;;;;0.88;94.90;97536.20;213980;1299;22524;-71
2022/11/23 03:18:12;;;;;;;55.20;23.50;;;;;;;0.87;94.77;97535.34;214184;1310;22665;-71
2022/11/23 03:23:14;;;;;;;46.30;21.70;;;;;;;0.84;94.64;97534.70;214102;1309;25300;-70
2022/11/23 03:28:17;;;;;;;43.70;21.20;;;;;;;0.79;94.61;97531.52;214227;1310;22600;-73
2022/11/23 03:33:20;;;;;;;51.90;22.80;;;;;;;0.79;94.83;97537.35;214057;1310;22477;-70
2022/11/23 03:38:22;;;;;;;49.90;22.20;;;;;;;0.80;94.94;97538.70;214151;1309;23729;-70
2022/11/23 03:43:25;;;;;;;44.80;20.00;;;;;;;0.81;94.99;97539.58;214179;1310;22478;-71
2022/11/23 03:48:27;;;;;;;37.10;16.60;;;;;;;0.81;94.82;97532.32;214303;1302;22502;-71
2022/11/23 03:53:28;;;;;;;49.70;22.00;;;;;;;0.84;95.08;97530.54;214354;1310;22556;-71
2022/11/23 03:58:30;;;;;;;36.70;17.60;;;;;;;0.85;94.95;97527.48;214029;1309;22618;-71
2022/11/23 04:03:33;;;;;;;41.40;19.30;;;;;;;0.83;94.93;97518.09;214309;1310;22489;-72
2022/11/23 04:08:51;;;;;;;41.60;18.90;;;;;;;0.79;94.78;97520.70;214354;1310;25337;-71
2022/11/23 04:14:18;;;;;;;50.30;22.40;;;;;;;0.75;94.90;97514.09;214257;1310;25465;-71
2022/11/23 04:19:21;;;;;;;56.20;22.50;;;;;;;0.71;94.86;97515.91;214205;1299;22911;-71
2022/11/23 04:24:23;;;;;;;36.80;17.10;;;;;;;0.65;94.86;97518.45;214089;1310;22468;-71
2022/11/23 04:29:27;;;;;;;43.10;19.30;;;;;;;0.62;94.94;97511.73;214323;1309;24293;-71
2022/11/23 04:34:30;;;;;;;44.20;18.80;;;;;;;0.59;94.99;97517.11;214037;1310;22519;-70
2022/11/23 04:39:34;;;;;;;47.20;21.00;;;;;;;0.52;94.82;97525.75;214031;1310;25434;-71
2022/11/23 04:45:02;;;;;;;42.80;19.20;;;;;;;0.43;94.82;97523.63;213906;1310;25280;-70
2022/11/23 04:50:05;;;;;;;38.30;17.20;;;;;;;0.36;95.01;97520.68;214274;1309;22468;-71
2022/11/23 04:55:07;;;;;;;39.70;18.00;;;;;;;0.32;95.26;97525.23;214129;1310;23252;-71
2022/11/23 05:00:14;;;;;;;45.30;19.60;;;;;;;0.26;95.14;97530.52;214056;1310;23225;-70
2022/11/23 05:05:17;;;;;;;39.10;20.30;;;;;;;0.24;95.41;97530.35;214342;1310;22488;-71
2022/11/23 05:10:18;;;;;;;41.90;19.80;;;;;;;0.21;95.34;97522.95;214039;1304;22748;-71
2022/11/23 05:15:21;;;;;;;49.80;21.90;;;;;;;0.19;95.60;97530.82;213931;1310;22502;-70
2022/11/23 05:20:24;;;;;;;53.50;23.50;;;;;;;0.18;95.65;97537.77;214051;1309;22590;-70
2022/11/23 05:25:26;;;;;;;60.70;26.00;;;;;;;0.17;95.80;97533.23;214100;1310;22581;-71
2022/11/23 05:30:35;;;;;;;54.60;24.50;;;;;;;0.19;95.95;97529.55;214169;1310;23159;-70
2022/11/23 05:35:38;;;;;;;54.20;24.20;;;;;;;0.16;96.00;97526.02;214282;1310;22620;-71
2022/11/23 05:40:39;;;;;;;49.70;22.80;;;;;;;0.15;95.90;97526.91;214192;1310;22597;-71
2022/11/23 05:45:42;;;;;;;55.70;23.50;;;;;;;0.11;95.85;97528.88;214399;1309;24417;-70
2022/11/23 05:50:45;;;;;;;53.90;24.30;;;;;;;0.09;96.02;97522.52;214282;1310;26164;-71
2022/11/23 05:56:07;;;;;;;61.10;25.70;;;;;;;0.11;96.18;97528.98;214156;1309;22469;-71
2022/11/23 06:01:15;;;;;;;55.40;23.00;;;;;;;0.14;96.35;97535.80;214297;1310;25340;-70
2022/11/23 06:06:17;;;;;;;56.60;24.10;;;;;;;0.16;96.53;97542.19;214049;1309;25456;-73
2022/11/23 06:11:19;;;;;;;39.10;17.10;;;;;;;0.19;96.46;97542.42;214107;1310;24260;-71
2022/11/23 06:16:21;;;;;;;56.30;23.70;;;;;;;0.20;96.46;97549.37;214227;1309;22602;-71
2022/11/23 06:21:32;;;;;;;56.60;24.10;;;;;;;0.20;96.47;97553.02;214247;1309;24434;-72
2022/11/23 06:26:34;;;;;;;54.90;25.50;;;;;;;0.22;96.54;97549.03;214426;1310;22985;-71
2022/11/23 06:31:37;;;;;;;58.40;25.40;;;;;;;0.26;96.62;97550.32;214153;1310;25388;-70
2022/11/23 06:36:39;;;;;;;42.20;18.80;;;;;;;0.32;96.79;97559.98;214618;1288;25340;-72
2022/11/23 06:41:42;;;;;;;56.30;25.10;;;;;;;0.31;96.41;97574.13;214228;1285;25337;-72
2022/11/23 06:46:44;;;;;;;54.90;23.30;;;;;;;0.32;96.32;97571.51;214510;1309;22473;-66
2022/11/23 06:51:46;;;;;;;51.80;22.40;;;;;;;0.37;96.70;97565.10;214710;1289;22999;-69
2022/11/23 06:56:48;;;;;;;48.00;21.50;;;;;;;0.47;96.95;97558.60;214646;1281;22598;-68
2022/11/23 07:01:50;;;;;;;49.10;20.40;;;;;;;0.59;96.85;97567.70;214987;1282;22472;-69
2022/11/23 07:06:53;;;;;;;43.30;19.60;;;;;;;0.69;96.86;97567.45;214778;1281;139147;-68
2022/11/23 07:12:04;;;;;;;39.50;18.40;;;;;;;0.80;96.86;97565.10;215329;1285;138520;-69
2022/11/23 07:17:06;;;;;;;39.40;18.10;;;;;;;0.92;96.76;97569.13;214538;1278;24327;-68
2022/11/23 07:22:11;;;;;;;41.90;17.70;;;;;;;1.00;96.57;97573.77;214530;1278;139498;-68
2022/11/23 07:27:16;;;;;;;41.10;18.80;;;;;;;1.09;96.69;97576.19;214644;1278;138527;-69
2022/11/23 07:32:18;;;;;;;42.30;19.00;;;;;;;1.18;96.65;97584.41;214492;1278;138501;-70
2022/11/23 07:37:20;;;;;;;45.40;20.20;;;;;;;1.26;96.57;97592.67;214528;1278;138546;-68
2022/11/23 07:42:23;;;;;;;42.60;18.80;;;;;;;1.34;96.41;97591.56;214499;1285;139002;-68
2022/11/23 07:47:35;;;;;;;45.70;19.60;;;;;;;1.44;96.39;97592.92;214379;1278;22502;-68
2022/11/23 07:52:39;;;;;;;40.60;17.80;;;;;;;1.56;96.45;97597.24;214500;1278;138128;-69
2022/11/23 07:57:41;;;;;;;42.40;19.20;;;;;;;1.69;96.47;97593.34;214401;1288;138875;-68
2022/11/23 08:02:43;;;;;;;46.60;19.50;;;;;;;1.76;95.93;97602.39;214427;1285;139145;-68
2022/11/23 08:08:04;;;;;;;39.40;17.10;;;;;;;1.83;95.95;97608.74;214554;1287;138606;-69
2022/11/23 08:13:06;;;;;;;43.90;19.90;;;;;;;1.96;95.88;97612.53;214752;1291;138681;-73
2022/11/23 08:18:08;;;;;;;35.50;18.10;;;;;;;2.07;95.70;97615.58;214566;1278;139052;-74
2022/11/23 08:23:10;;;;;;;44.80;20.50;;;;;;;2.14;95.28;97608.81;214778;1278;22751;-73
2022/11/23 08:28:12;;;;;;;41.70;21.00;;;;;;;2.20;95.26;97592.45;214619;1284;138192;-73
2022/11/23 08:33:14;;;;;;;43.00;18.60;;;;;;;2.30;95.19;97585.80;214683;1278;139024;-73
2022/11/23 08:38:16;;;;;;;50.30;22.40;;;;;;;2.42;95.05;97584.64;214688;1285;138672;-74
2022/11/23 08:43:18;;;;;;;46.30;21.20;;;;;;;2.56;95.17;97585.85;214564;1281;137606;-74
2022/11/23 08:48:20;;;;;;;50.30;21.70;;;;;;;2.70;94.84;97585.42;214909;1286;138982;-75
2022/11/23 08:53:22;;;;;;;41.40;19.80;;;;;;;2.79;94.56;97586.10;214844;1284;26368;-73
2022/11/23 08:58:23;;;;;;;37.90;18.40;;;;;;;2.86;94.42;97585.99;215020;1278;138269;-73
2022/11/23 09:03:25;;;;;;;43.40;20.30;;;;;;;2.90;94.08;97586.46;214877;1278;138869;-73
2022/11/23 09:08:27;;;;;;;39.50;19.60;;;;;;;2.90;93.85;97584.61;215272;1278;138573;-73
2022/11/23 09:13:29;;;;;;;43.50;20.10;;;;;;;2.90;93.53;97579.68;215268;1278;139148;-72
2022/11/23 09:18:35;;;;;;;39.30;19.10;;;;;;;2.95;93.78;97571.00;214747;1281;140182;-73
2022/11/23 09:23:37;;;;;;;42.40;20.50;;;;;;;3.06;93.94;97567.86;214871;1285;22476;-72
2022/11/23 09:28:39;;;;;;;46.00;22.60;;;;;;;3.10;93.44;97561.08;214826;1282;138231;-74
2022/11/23 09:33:45;;;;;;;46.20;21.70;;;;;;;3.16;93.65;97562.27;214822;1278;138412;-73
2022/11/23 09:38:48;;;;;;;39.30;19.30;;;;;;;3.27;93.52;97565.89;214890;1285;138575;-71
2022/11/23 09:44:34;;;;;;;46.30;21.20;;;;;;;3.33;93.11;97562.80;214920;1284;138534;-72
2022/11/23 09:50:14;;;;;;;50.60;24.20;;;;;;;3.37;93.02;97557.91;215334;1286;138541;-72
2022/11/23 09:55:29;;;;;;;34.70;18.10;;;;;;;3.46;93.17;97555.49;213819;1292;138579;-71
2022/11/23 10:00:37;;;;;;;43.70;23.70;;;;;;;3.55;92.76;97556.04;214500;1304;138518;-70
2022/11/23 10:05:39;;;;;;;44.90;21.00;;;;;;;3.59;92.65;97547.16;214962;1281;24372;-71
2022/11/23 10:11:28;;;;;;;41.30;22.20;;;;;;;3.62;92.20;97543.18;215542;1284;138158;-72
2022/11/23 10:16:44;;;;;;;47.20;24.10;;;;;;;3.65;92.14;97530.24;214798;1286;138370;-72
2022/11/23 10:21:45;;;;;;;36.10;18.20;;;;;;;3.78;92.35;97523.92;214656;1278;138411;-72
2022/11/23 10:26:49;;;;;;;39.70;21.30;;;;;;;3.85;91.93;97512.96;214723;1288;138555;-73
2022/11/23 10:31:52;;;;;;;43.30;19.90;;;;;;;3.88;91.78;97511.23;214711;1285;138662;-72
2022/11/23 10:36:58;;;;;;;39.00;20.40;;;;;;;3.86;91.45;97509.04;214928;1284;138774;-73
2022/11/23 10:42:08;;;;;;;34.80;18.30;;;;;;;3.86;91.40;97504.64;214784;1284;106163;-73
2022/11/23 10:47:10;;;;;;;41.80;20.00;;;;;;;3.82;90.97;97502.17;214643;1285;22482;-73
2022/11/23 10:52:28;;;;;;;42.30;20.90;;;;;;;3.85;91.15;97501.15;214695;1285;138614;-74
2022/11/23 10:57:41;;;;;;;31.10;16.80;;;;;;;3.95;91.05;97503.04;214679;1278;138343;-72
2022/11/23 11:02:46;;;;;;;38.20;18.80;;;;;;;3.99;90.88;97503.49;214463;1284;138554;-76
2022/11/23 11:07:48;;;;;;;31.70;16.50;;;;;;;4.07;90.65;97497.55;217125;1285;138870;-74
2022/11/23 11:12:50;;;;;;;36.70;18.70;;;;;;;4.20;90.32;97493.84;215383;1301;138616;-72
2022/11/23 11:17:57;;;;;;;29.50;14.90;;;;;;;4.33;89.81;97489.17;215015;1284;22494;-73
2022/11/23 11:23:03;;;;;;;33.90;16.80;;;;;;;4.47;89.82;97485.17;214802;1290;138119;-72
2022/11/23 11:28:41;;;;;;;27.60;13.70;;;;;;;4.60;89.39;97487.54;214798;1285;138865;-72
2022/11/23 11:34:13;;;;;;;32.00;16.40;;;;;;;4.69;89.26;97486.66;214455;1284;138948;-72
2022/11/23 11:39:26;;;;;;;34.70;17.40;;;;;;;4.86;88.53;97486.70;214709;1281;139162;-72
2022/11/23 11:44:35;;;;;;;28.40;15.70;;;;;;;4.96;88.15;97490.62;214696;1291;139224;-73
2022/11/23 11:49:44;;;;;;;21.90;12.20;;;;;;;5.07;88.04;97492.88;214621;1302;138934;-73
2022/11/23 11:55:03;;;;;;;23.70;12.70;;;;;;;5.09;87.38;97492.34;214450;1301;138490;-72
2022/11/23 12:00:12;;;;;;;22.60;12.10;;;;;;;5.09;87.31;97489.52;214861;1282;22605;-73
2022/11/23 12:05:23;;;;;;;23.90;12.80;;;;;;;5.06;87.03;97486.94;214899;1285;23074;-73
2022/11/23 12:10:34;;;;;;;24.80;12.80;;;;;;;5.00;86.89;97494.65;215456;1300;138577;-73
2022/11/23 12:15:45;;;;;;;21.50;10.40;;;;;;;4.89;86.28;97504.12;214649;1293;138350;-73
2022/11/23 12:21:04;;;;;;;21.90;11.40;;;;;;;4.82;86.14;97510.45;214799;1311;138574;-73
2022/11/23 12:26:41;;;;;;;21.50;10.90;;;;;;;4.81;86.27;97508.84;216904;1298;138660;-80
2022/11/23 12:31:49;;;;;;;28.40;13.50;;;;;;;4.77;86.00;97516.40;214834;1286;138660;-73
2022/11/23 12:37:04;;;;;;;27.70;13.30;;;;;;;4.77;85.92;97521.11;215475;1292;138468;-72
2022/11/23 12:42:17;;;;;;;25.00;13.30;;;;;;;4.74;85.88;97521.79;214743;1300;22471;-73
2022/11/23 12:47:39;;;;;;;19.50;10.60;;;;;;;4.64;85.87;97523.93;215185;1285;22525;-73
2022/11/23 12:53:16;;;;;;;24.90;12.60;;;;;;;4.55;85.81;97532.41;214744;1285;138177;-73
2022/11/23 12:58:26;;;;;;;27.60;12.90;;;;;;;4.53;86.16;97527.98;214671;1284;138908;-72
2022/11/23 13:03:58;;;;;;;16.20;9.70;;;;;;;4.50;85.91;97533.63;215065;1291;138518;-75
2022/11/23 13:09:34;;;;;;;22.60;11.30;;;;;;;4.42;85.71;97539.25;215118;1285;138379;-74
2022/11/23 13:14:48;;;;;;;22.00;12.50;;;;;;;4.30;85.85;97538.45;215056;1284;138561;-74
2022/11/23 13:20:27;;;;;;;17.60;9.10;;;;;;;4.17;85.78;97546.34;214672;1284;138525;-76
2022/11/23 13:25:29;;;;;;;17.90;9.30;;;;;;;4.03;85.79;97545.80;214537;1289;139655;-73
2022/11/23 13:30:36;;;;;;;22.90;10.90;;;;;;;3.88;85.84;97548.34;214580;1284;139203;-73
2022/11/23 13:35:59;;;;;;;21.20;10.20;;;;;;;3.78;86.14;97541.03;214816;1284;23740;-74
2022/11/23 13:41:33;;;;;;;21.60;11.30;;;;;;;3.73;86.21;97534.27;214600;1288;22482;-73
2022/11/23 13:46:36;;;;;;;18.10;10.10;;;;;;;3.67;86.14;97537.34;214698;1302;138245;-75
2022/11/23 13:51:38;;;;;;;25.70;12.60;;;;;;;3.55;86.42;97537.49;214550;1282;138699;-75
2022/11/23 13:56:43;;;;;;;21.60;11.90;;;;;;;3.52;86.93;97548.42;214682;1284;138655;-75
2022/11/23 14:02:11;;;;;;;22.90;11.60;;;;;;;3.46;86.72;97550.72;214693;1284;138846;-75
2022/11/23 14:07:19;;;;;;;23.20;10.70;;;;;;;3.41;86.77;97557.79;214951;1278;138684;-75
2022/11/23 14:12:45;;;;;;;25.10;13.10;;;;;;;3.38;87.13;97554.84;215558;1284;138548;-73
2022/11/23 14:18:49;;;;;;;29.70;14.10;;;;;;;3.38;87.10;97561.56;214789;1284;22523;-74
2022/11/23 14:24:31;;;;;;;23.00;11.40;;;;;;;3.35;87.12;97562.95;214532;1284;22458;-73
2022/11/23 14:30:04;;;;;;;24.60;12.90;;;;;;;3.28;87.01;97565.36;214810;1284;22496;-75
2022/11/23 14:35:39;;;;;;;22.30;12.50;;;;;;;3.22;86.90;97568.02;214861;1284;138719;-74
2022/11/23 14:41:20;;;;;;;21.90;12.00;;;;;;;3.12;86.83;97568.79;214417;1291;139279;-74
2022/11/23 14:46:24;;;;;;;25.20;13.10;;;;;;;3.06;87.20;97569.34;214648;1286;138875;-75
2022/11/23 14:51:27;;;;;;;25.80;14.50;;;;;;;3.02;87.44;97574.02;214686;1285;138842;-73
2022/11/23 14:56:36;;;;;;;23.70;11.60;;;;;;;3.00;87.34;97576.45;214933;1284;138632;-73
2022/11/23 15:01:45;;;;;;;26.10;13.60;;;;;;;2.96;87.36;97576.88;214933;1285;138837;-75
2022/11/23 15:06:52;;;;;;;23.20;11.80;;;;;;;2.87;87.15;97572.60;214732;1310;22564;-74
2022/11/23 15:12:06;;;;;;;30.30;13.00;;;;;;;2.76;87.22;97587.11;214679;1310;22542;-74
2022/11/23 15:17:16;;;;;;;26.40;12.50;;;;;;;2.70;87.53;97594.58;214408;1286;22484;-74
2022/11/23 15:22:19;;;;;;;;;;;;;;;2.65;87.55;97597.58;214283;1310;22614;-74
2022/11/23 15:27:27;;;;;;;21.30;10.70;;;;;;;2.61;87.72;97600.04;214318;1310;25241;-74
2022/11/23 15:32:31;;;;;;;32.40;15.30;;;;;;;2.57;87.59;97602.19;213986;1310;25272;-74
2022/11/23 15:37:43;;;;;;;26.30;13.00;;;;;;;2.55;87.80;97596.86;214348;1310;23150;-74
2022/11/23 15:42:48;;;;;;;26.20;11.70;;;;;;;2.51;87.85;97592.52;214230;1310;22483;-74
2022/11/23 15:47:50;;;;;;;28.80;13.20;;;;;;;2.50;88.02;97587.02;214325;1310;24120;-74
2022/11/23 15:52:52;;;;;;;27.80;13.20;;;;;;;2.50;88.28;97592.45;214398;1303;22492;-74
2022/11/23 15:57:55;;;;;;;30.00;14.20;;;;;;;2.51;88.32;97595.16;214249;1310;25219;-74
2022/11/23 16:03:25;;;;;;;20.70;11.30;;;;;;;2.50;88.22;97604.73;213975;1310;22481;-75
2022/11/23 16:08:28;;;;;;;;;;;;;;;2.41;88.27;97612.77;214452;1306;24050;-73
2022/11/23 16:13:35;;;;;;;25.60;11.80;;;;;;;2.33;88.22;97608.48;214445;1307;22585;-74
2022/11/23 16:18:43;;;;;;;23.30;12.20;;;;;;;2.25;88.35;97605.45;214284;1310;22464;-73
2022/11/23 16:23:53;;;;;;;21.60;10.90;;;;;;;2.18;88.47;97607.81;214424;1310;23173;-74
2022/11/23 16:28:57;;;;;;;25.70;12.50;;;;;;;2.15;88.54;97609.98;214400;1310;22491;-75
2022/11/23 16:33:59;;;;;;;23.60;11.40;;;;;;;2.12;88.58;97617.38;214364;1310;22470;-74
2022/11/23 16:39:01;;;;;;;21.40;10.20;;;;;;;2.11;88.55;97619.69;214366;1297;22592;-74
2022/11/23 16:44:06;;;;;;;28.10;13.50;;;;;;;2.10;88.63;97621.06;214217;1310;25312;-74
2022/11/23 16:49:18;;;;;;;23.50;11.50;;;;;;;2.10;88.75;97627.20;214307;1310;22473;-74
2022/11/23 16:54:20;;;;;;;25.60;12.80;;;;;;;2.04;88.55;97633.73;214349;1310;25274;-74
2022/11/23 16:59:26;;;;;;;27.60;13.50;;;;;;;1.97;88.63;97633.39;214281;1309;25335;-73
2022/11/23 17:04:28;;;;;;;30.70;15.30;;;;;;;1.90;88.78;97639.28;214177;1310;22509;-74
2022/11/23 17:09:30;;;;;;;27.50;14.20;;;;;;;1.85;88.92;97636.27;214236;1301;23975;-74
2022/11/23 17:14:36;;;;;;;31.40;15.10;;;;;;;1.87;89.10;97639.92;214259;1310;22467;-74
2022/11/23 17:19:38;;;;;;;27.00;13.10;;;;;;;1.86;89.27;97642.82;214463;1310;22477;-74
2022/11/23 17:24:41;;;;;;;27.80;14.30;;;;;;;1.86;89.18;97642.50;214436;1310;25661;-74
2022/11/23 17:29:44;;;;;;;25.80;12.70;;;;;;;1.85;89.31;97635.58;214171;1310;23196;-74
2022/11/23 17:34:46;;;;;;;22.40;11.40;;;;;;;1.84;89.26;97626.34;214010;1306;22476;-73
2022/11/23 17:39:49;;;;;;;30.20;13.60;;;;;;;1.82;89.47;97630.45;214306;1303;22509;-73
2022/11/23 17:44:50;;;;;;;24.30;12.20;;;;;;;1.83;89.43;97631.27;214314;1310;22503;-73
2022/11/23 17:49:52;;;;;;;26.10;12.60;;;;;;;1.80;89.52;97632.02;214186;1310;25402;-74
2022/11/23 17:54:54;;;;;;;27.60;12.40;;;;;;;1.76;89.53;97626.95;214259;1310;22476;-74
2022/11/23 17:59:56;;;;;;;31.00;14.00;;;;;;;1.77;89.75;97627.05;214348;1310;25439;-75
2022/11/23 18:05:13;;;;;;;31.00;14.40;;;;;;;1.77;90.05;97628.91;214251;1310;25286;-74
2022/11/23 18:10:22;;;;;;;30.90;14.90;;;;;;;1.78;90.02;97628.91;214140;1310;25461;-74
2022/11/23 18:15:24;;;;;;;31.90;15.40;;;;;;;1.78;90.18;97628.00;214237;1309;25239;-74
2022/11/23 18:20:25;;;;;;;33.70;15.90;;;;;;;1.80;90.34;97635.25;214237;1310;23738;-73
2022/11/23 18:25:27;;;;;;;37.80;17.30;;;;;;;1.82;90.28;97641.43;214156;1310;22505;-74
2022/11/23 18:30:29;;;;;;;28.40;13.50;;;;;;;1.84;90.36;97648.58;214220;1310;22477;-74
2022/11/23 18:35:31;;;;;;;34.60;16.60;;;;;;;1.81;90.29;97644.76;214155;1295;22454;-74
2022/11/23 18:40:33;;;;;;;31.10;14.30;;;;;;;1.79;90.39;97653.73;214331;1303;22622;-74
2022/11/23 18:45:35;;;;;;;30.70;14.90;;;;;;;1.76;90.45;97651.92;214237;1308;22949;-74
2022/11/23 18:50:37;;;;;;;30.90;14.10;;;;;;;1.73;90.48;97651.54;214310;1309;24155;-73
2022/11/23 18:55:38;;;;;;;25.60;12.10;;;;;;;1.70;90.57;97654.17;214216;1310;22486;-73
2022/11/23 19:00:41;;;;;;;28.90;14.00;;;;;;;1.72;90.80;97653.97;214354;1291;22519;-73
2022/11/23 19:05:43;;;;;;;28.60;13.20;;;;;;;1.72;90.69;97644.98;214103;1310;22487;-74
2022/11/23 19:10:45;;;;;;;29.70;12.70;;;;;;;1.69;90.69;97651.15;214306;1303;24465;-74
2022/11/23 19:15:47;;;;;;;24.80;11.70;;;;;;;1.66;90.90;97648.35;214246;1310;22489;-75
2022/11/23 19:20:48;;;;;;;26.60;12.50;;;;;;;1.64;90.88;97649.51;214173;1310;26675;-74
2022/11/23 19:25:50;;;;;;;26.60;12.30;;;;;;;1.61;90.91;97642.41;214154;1310;22483;-74
2022/11/23 19:30:52;;;;;;;26.60;12.60;;;;;;;1.60;91.10;97647.58;214243;1310;22700;-73
2022/11/23 19:35:54;;;;;;;23.90;12.80;;;;;;;1.61;91.17;97648.73;214014;1310;22520;-73
2022/11/23 19:40:56;;;;;;;26.20;13.80;;;;;;;1.61;91.18;97643.83;214269;1310;24339;-74
2022/11/23 19:46:00;;;;;;;30.20;14.80;;;;;;;1.60;91.22;97645.58;214452;1310;23184;-74
2022/11/23 19:51:03;;;;;;;30.40;13.60;;;;;;;1.58;91.29;97648.57;214314;1310;26378;-74
2022/11/23 19:56:14;;;;;;;35.60;16.00;;;;;;;1.59;91.61;97648.01;214136;1310;22480;-74
2022/11/23 20:01:17;;;;;;;32.60;16.20;;;;;;;1.57;91.52;97648.30;214285;1309;25293;-74
2022/11/23 20:06:25;;;;;;;37.20;16.30;;;;;;;1.59;91.73;97650.11;214340;1310;25226;-73
2022/11/23 20:11:29;;;;;;;31.40;14.80;;;;;;;1.61;91.58;97653.17;214083;1309;22607;-76
2022/11/23 20:16:31;;;;;;;29.30;14.70;;;;;;;1.59;91.51;97657.66;214124;1310;25423;-75
2022/11/23 20:21:35;;;;;;;26.70;13.00;;;;;;;1.59;91.74;97664.79;214236;1310;25392;-76
2022/11/23 20:26:38;;;;;;;28.40;12.00;;;;;;;1.55;91.56;97668.09;214139;1310;22483;-75
2022/11/23 20:31:40;;;;;;;29.10;13.70;;;;;;;1.52;91.77;97664.53;214042;1304;22473;-75
2022/11/23 20:36:42;;;;;;;27.10;14.40;;;;;;;1.52;91.87;97662.63;214056;1310;25214;-76
2022/11/23 20:41:44;;;;;;;34.90;16.90;;;;;;;1.54;91.99;97669.20;214304;1310;24263;-75
2022/11/23 20:46:47;;;;;;;27.60;14.60;;;;;;;1.53;91.98;97673.88;213963;1309;22535;-75
2022/11/23 20:52:04;;;;;;;27.40;12.80;;;;;;;1.51;91.89;97675.82;214315;1310;25303;-76
2022/11/23 20:57:06;;;;;;;32.70;15.10;;;;;;;1.51;92.00;97676.79;213812;1309;25457;-77
2022/11/23 21:02:08;;;;;;;23.50;10.90;;;;;;;1.52;92.05;97680.80;214344;1310;24465;-76
2022/11/23 21:07:10;;;;;;;27.00;11.90;;;;;;;1.51;92.17;97680.90;214302;1310;22470;-76
2022/11/23 21:17:53;;;;;;;29.60;13.00;;;;;;;1.52;92.28;97689.81;213302;1315;22512;-75
2022/11/23 21:22:55;;;;;;;25.40;11.60;;;;;;;1.53;92.45;97693.05;214121;1310;22490;-76
2022/11/23 21:27:57;;;;;;;27.00;13.20;;;;;;;1.54;92.31;97698.13;214282;1310;22482;-75
2022/11/23 21:32:59;;;;;;;31.20;14.80;;;;;;;1.54;92.42;97705.73;214157;1310;23780;-76
2022/11/23 21:38:00;;;;;;;33.40;14.50;;;;;;;1.52;92.36;97710.57;214211;1310;22477;-75
2022/11/23 21:43:03;;;;;;;31.10;14.70;;;;;;;1.53;92.47;97717.23;214162;1310;26377;-76
2022/11/23 21:48:06;;;;;;;36.20;16.00;;;;;;;1.58;92.71;97719.16;214375;1310;23736;-76
2022/11/23 21:53:08;;;;;;;31.80;13.20;;;;;;;1.62;92.79;97725.05;214248;1302;22460;-76
2022/11/23 21:58:10;;;;;;;34.70;15.10;;;;;;;1.64;92.60;97728.23;214254;1310;25353;-76
2022/11/23 22:03:12;;;;;;;33.60;15.50;;;;;;;1.67;92.72;97723.23;214289;1310;25261;-75
2022/11/23 22:08:14;;;;;;;28.30;13.30;;;;;;;1.66;92.63;97721.01;214207;1304;22486;-76
2022/11/23 22:13:38;;;;;;;31.80;15.50;;;;;;;1.65;92.64;97717.35;214053;1309;22472;-75
2022/11/23 22:18:40;;;;;;;24.30;12.00;;;;;;;1.66;92.79;97721.85;214295;1309;22530;-76
2022/11/23 22:23:43;;;;;;;31.80;14.40;;;;;;;1.66;92.49;97721.20;214093;1310;22492;-78
2022/11/23 22:28:47;;;;;;;30.20;14.10;;;;;;;1.63;92.50;97714.48;214119;1310;25314;-76
2022/11/23 22:33:51;;;;;;;28.90;13.90;;;;;;;1.63;92.53;97720.14;214254;1310;25335;-75
2022/11/23 22:39:01;;;;;;;27.50;13.60;;;;;;;1.64;92.59;97722.98;214105;1306;122962;-77
2022/11/23 22:44:06;;;;;;;27.40;12.70;;;;;;;1.66;92.66;97723.85;214189;1310;22472;-75
2022/11/23 22:49:08;;;;;;;26.10;12.00;;;;;;;1.67;92.69;97717.14;214276;1310;25290;-75
2022/11/23 22:54:10;;;;;;;25.10;11.60;;;;;;;1.68;92.52;97719.74;214321;1303;22618;-76
2022/11/23 22:59:12;;;;;;;32.00;14.90;;;;;;;1.66;92.43;97720.61;214231;1310;22482;-75
2022/11/23 23:04:13;;;;;;;34.50;14.80;;;;;;;1.66;92.49;97720.84;214179;1310;24299;-75
2022/11/23 23:09:16;;;;;;;34.70;14.00;;;;;;;1.68;92.72;97722.44;214186;1310;24475;-76
2022/11/23 23:14:17;;;;;;;35.40;15.00;;;;;;;1.73;92.75;97720.50;214222;1309;25397;-76
2022/11/23 23:19:20;;;;;;;24.10;11.20;;;;;;;1.77;92.88;97719.54;214302;1310;25233;-75
2022/11/23 23:24:22;;;;;;;32.00;14.30;;;;;;;1.75;92.45;97716.66;214175;1310;22467;-75
2022/11/23 23:29:24;;;;;;;30.90;13.90;;;;;;;1.75;92.58;97721.67;214258;1309;22489;-75
2022/11/23 23:34:26;;;;;;;31.80;14.90;;;;;;;1.77;92.46;97724.06;214217;1310;25402;-76